KEVV

Evansville Regional Airport

Airport
ICAO code
KEVV
IATA Code
EVV
Summary
ICAO Region
NAM
ICAO Territory
Location

Evansville, Indiana

Serving
Evansville
Elevation
422 ft
Coordinates
38° 2' 49" N , 87° 31' 46" W
KCC
Airport WX
Cumulonimbus
Metar
KEVV 041107Z AUTO 11003KT 3SM BR OVC009 13/12 A3003 RMK AO2 T01280122 $

Evansville Regional Airport is a public use airport located 3 nm north of the central business district of Evansville, a city in Vanderburgh County, Indiana, USA.

Airport map

Aerial View

SKYbrary Partners:

Safety knowledge contributed by: